sensor_id;sensor_type;location;lat;lon;timestamp;temperature;humidity
13186;DHT22;6658;53.080;7.428;2023-07-30T00:00:37;15.50;99.90
13186;DHT22;6658;53.080;7.428;2023-07-30T00:03:03;15.50;99.90
13186;DHT22;6658;53.080;7.428;2023-07-30T00:05:29;15.50;99.90
13186;DHT22;6658;53.080;7.428;2023-07-30T00:07:54;15.40;99.90
13186;DHT22;6658;53.080;7.428;2023-07-30T00:10:20;15.40;99.90
13186;DHT22;6658;53.080;7.428;2023-07-30T00:12:46;15.50;99.90
13186;DHT22;6658;53.080;7.428;2023-07-30T00:15:12;15.40;99.90
13186;DHT22;6658;53.080;7.428;2023-07-30T00:17:38;15.40;99.90
13186;DHT22;6658;53.080;7.428;2023-07-30T00:20:08;15.40;99.90
13186;DHT22;6658;53.080;7.428;2023-07-30T00:22:34;15.40;99.90
13186;DHT22;6658;53.080;7.428;2023-07-30T00:25:00;15.30;99.90
13186;DHT22;6658;53.080;7.428;2023-07-30T00:27:25;15.30;99.90
13186;DHT22;6658;53.080;7.428;2023-07-30T00:29:51;15.30;99.90
13186;DHT22;6658;53.080;7.428;2023-07-30T00:32:17;15.30;99.90
13186;DHT22;6658;53.080;7.428;2023-07-30T00:34:43;15.30;99.90
13186;DHT22;6658;53.080;7.428;2023-07-30T00:37:09;15.20;99.90
13186;DHT22;6658;53.080;7.428;2023-07-30T00:39:35;15.20;99.90
13186;DHT22;6658;53.080;7.428;2023-07-30T00:42:00;15.20;99.90
13186;DHT22;6658;53.080;7.428;2023-07-30T00:44:26;15.20;99.90
13186;DHT22;6658;53.080;7.428;2023-07-30T00:46:52;15.10;99.90
13186;DHT22;6658;53.080;7.428;2023-07-30T00:49:18;15.10;99.90
13186;DHT22;6658;53.080;7.428;2023-07-30T00:51:44;15.10;99.90
13186;DHT22;6658;53.080;7.428;2023-07-30T00:54:11;15.10;99.90
13186;DHT22;6658;53.080;7.428;2023-07-30T00:56:37;15.10;99.90
13186;DHT22;6658;53.080;7.428;2023-07-30T00:59:03;15.10;99.90
13186;DHT22;6658;53.080;7.428;2023-07-30T01:01:33;15.10;99.90
13186;DHT22;6658;53.080;7.428;2023-07-30T01:03:59;15.10;99.90
13186;DHT22;6658;53.080;7.428;2023-07-30T01:06:25;15.10;99.90
13186;DHT22;6658;53.080;7.428;2023-07-30T01:08:51;15.10;99.90
13186;DHT22;6658;53.080;7.428;2023-07-30T01:11:17;15.10;99.90
13186;DHT22;6658;53.080;7.428;2023-07-30T01:13:43;15.10;99.90
13186;DHT22;6658;53.080;7.428;2023-07-30T01:16:10;15.10;99.90
13186;DHT22;6658;53.080;7.428;2023-07-30T01:18:36;15.20;99.90
13186;DHT22;6658;53.080;7.428;2023-07-30T01:21:02;15.20;99.90
13186;DHT22;6658;53.080;7.428;2023-07-30T01:23:27;15.20;99.90
13186;DHT22;6658;53.080;7.428;2023-07-30T01:26:02;15.20;99.90
13186;DHT22;6658;53.080;7.428;2023-07-30T01:28:36;15.20;99.90
13186;DHT22;6658;53.080;7.428;2023-07-30T01:31:02;15.20;99.90
13186;DHT22;6658;53.080;7.428;2023-07-30T01:33:29;15.20;99.90
13186;DHT22;6658;53.080;7.428;2023-07-30T01:35:56;15.10;99.90
13186;DHT22;6658;53.080;7.428;2023-07-30T01:38:22;15.10;99.90
13186;DHT22;6658;53.080;7.428;2023-07-30T01:40:49;15.10;99.90
13186;DHT22;6658;53.080;7.428;2023-07-30T01:43:15;15.10;99.90
13186;DHT22;6658;53.080;7.428;2023-07-30T01:45:40;15.10;99.90
13186;DHT22;6658;53.080;7.428;2023-07-30T01:48:06;15.10;99.90
13186;DHT22;6658;53.080;7.428;2023-07-30T01:50:32;15.10;99.90
13186;DHT22;6658;53.080;7.428;2023-07-30T01:52:58;15.10;99.90
13186;DHT22;6658;53.080;7.428;2023-07-30T01:55:23;15.10;99.90
13186;DHT22;6658;53.080;7.428;2023-07-30T01:57:49;15.10;99.90
13186;DHT22;6658;53.080;7.428;2023-07-30T02:00:15;15.10;99.90
13186;DHT22;6658;53.080;7.428;2023-07-30T02:02:40;15.10;99.90
13186;DHT22;6658;53.080;7.428;2023-07-30T02:05:06;15.10;99.90
13186;DHT22;6658;53.080;7.428;2023-07-30T02:07:32;15.10;99.90
13186;DHT22;6658;53.080;7.428;2023-07-30T02:09:57;15.00;99.90
13186;DHT22;6658;53.080;7.428;2023-07-30T02:12:23;14.90;99.90
13186;DHT22;6658;53.080;7.428;2023-07-30T02:14:49;14.90;99.90
13186;DHT22;6658;53.080;7.428;2023-07-30T02:17:14;14.90;99.90
13186;DHT22;6658;53.080;7.428;2023-07-30T02:19:40;14.90;99.90
13186;DHT22;6658;53.080;7.428;2023-07-30T02:22:07;15.00;99.90
13186;DHT22;6658;53.080;7.428;2023-07-30T02:24:32;15.00;99.90
13186;DHT22;6658;53.080;7.428;2023-07-30T02:26:58;15.00;99.90
13186;DHT22;6658;53.080;7.428;2023-07-30T02:29:27;15.00;99.90
13186;DHT22;6658;53.080;7.428;2023-07-30T02:31:53;14.90;99.90
13186;DHT22;6658;53.080;7.428;2023-07-30T02:34:19;14.90;99.90
13186;DHT22;6658;53.080;7.428;2023-07-30T02:36:45;14.90;99.90
13186;DHT22;6658;53.080;7.428;2023-07-30T02:39:11;15.00;99.90
13186;DHT22;6658;53.080;7.428;2023-07-30T02:41:36;15.00;99.90
13186;DHT22;6658;53.080;7.428;2023-07-30T02:44:02;15.00;99.90
13186;DHT22;6658;53.080;7.428;2023-07-30T02:46:28;14.90;99.90
13186;DHT22;6658;53.080;7.428;2023-07-30T02:48:53;14.90;99.90
13186;DHT22;6658;53.080;7.428;2023-07-30T02:51:25;14.90;99.90
13186;DHT22;6658;53.080;7.428;2023-07-30T02:53:58;14.90;99.90
13186;DHT22;6658;53.080;7.428;2023-07-30T02:56:26;14.90;99.90
13186;DHT22;6658;53.080;7.428;2023-07-30T02:58:52;14.90;99.90
13186;DHT22;6658;53.080;7.428;2023-07-30T03:01:18;14.90;99.90
13186;DHT22;6658;53.080;7.428;2023-07-30T03:03:44;14.90;99.90
13186;DHT22;6658;53.080;7.428;2023-07-30T03:06:10;14.90;99.90
13186;DHT22;6658;53.080;7.428;2023-07-30T03:08:36;14.80;99.90
13186;DHT22;6658;53.080;7.428;2023-07-30T03:11:02;14.80;99.90
13186;DHT22;6658;53.080;7.428;2023-07-30T03:13:28;14.80;99.90
13186;DHT22;6658;53.080;7.428;2023-07-30T03:15:55;14.80;99.90
13186;DHT22;6658;53.080;7.428;2023-07-30T03:18:23;14.70;99.90
13186;DHT22;6658;53.080;7.428;2023-07-30T03:20:49;14.70;99.90
13186;DHT22;6658;53.080;7.428;2023-07-30T03:23:15;14.70;99.90
13186;DHT22;6658;53.080;7.428;2023-07-30T03:25:40;14.70;99.90
13186;DHT22;6658;53.080;7.428;2023-07-30T03:28:06;14.60;99.90
13186;DHT22;6658;53.080;7.428;2023-07-30T03:30:32;14.60;99.90
13186;DHT22;6658;53.080;7.428;2023-07-30T03:32:57;14.60;99.90
13186;DHT22;6658;53.080;7.428;2023-07-30T03:35:23;14.50;99.90
13186;DHT22;6658;53.080;7.428;2023-07-30T03:37:49;14.50;99.90
13186;DHT22;6658;53.080;7.428;2023-07-30T03:40:14;14.50;99.90
13186;DHT22;6658;53.080;7.428;2023-07-30T03:42:40;14.50;99.90
13186;DHT22;6658;53.080;7.428;2023-07-30T03:45:06;14.50;99.90
13186;DHT22;6658;53.080;7.428;2023-07-30T03:47:32;14.50;99.90
13186;DHT22;6658;53.080;7.428;2023-07-30T03:49:57;14.50;99.90
13186;DHT22;6658;53.080;7.428;2023-07-30T03:52:23;14.50;99.90
13186;DHT22;6658;53.080;7.428;2023-07-30T03:54:49;14.50;99.90
13186;DHT22;6658;53.080;7.428;2023-07-30T03:57:14;14.60;99.90
13186;DHT22;6658;53.080;7.428;2023-07-30T03:59:40;14.60;99.90
13186;DHT22;6658;53.080;7.428;2023-07-30T04:02:06;14.70;99.90
13186;DHT22;6658;53.080;7.428;2023-07-30T04:04:31;14.70;99.90
13186;DHT22;6658;53.080;7.428;2023-07-30T04:06:57;14.70;99.90
13186;DHT22;6658;53.080;7.428;2023-07-30T04:09:22;14.80;99.90
13186;DHT22;6658;53.080;7.428;2023-07-30T04:11:48;14.80;99.90
13186;DHT22;6658;53.080;7.428;2023-07-30T04:14:14;14.80;99.90
13186;DHT22;6658;53.080;7.428;2023-07-30T04:16:39;14.80;99.90
13186;DHT22;6658;53.080;7.428;2023-07-30T04:19:05;14.80;99.90
13186;DHT22;6658;53.080;7.428;2023-07-30T04:21:31;14.80;99.90
13186;DHT22;6658;53.080;7.428;2023-07-30T04:23:56;14.80;99.90
13186;DHT22;6658;53.080;7.428;2023-07-30T04:26:22;14.90;99.90
13186;DHT22;6658;53.080;7.428;2023-07-30T04:28:48;14.90;99.90
13186;DHT22;6658;53.080;7.428;2023-07-30T04:31:13;15.00;99.90
13186;DHT22;6658;53.080;7.428;2023-07-30T04:33:39;15.00;99.90
13186;DHT22;6658;53.080;7.428;2023-07-30T04:36:05;15.10;99.90
13186;DHT22;6658;53.080;7.428;2023-07-30T04:38:32;15.10;99.90
13186;DHT22;6658;53.080;7.428;2023-07-30T04:40:58;15.20;99.90
13186;DHT22;6658;53.080;7.428;2023-07-30T04:43:24;15.20;99.90
13186;DHT22;6658;53.080;7.428;2023-07-30T04:45:50;15.20;99.90
13186;DHT22;6658;53.080;7.428;2023-07-30T04:48:15;15.20;99.90
13186;DHT22;6658;53.080;7.428;2023-07-30T04:50:41;15.20;99.90
13186;DHT22;6658;53.080;7.428;2023-07-30T04:53:08;15.20;99.90
13186;DHT22;6658;53.080;7.428;2023-07-30T04:55:34;15.30;99.90
13186;DHT22;6658;53.080;7.428;2023-07-30T04:57:59;15.30;99.90
13186;DHT22;6658;53.080;7.428;2023-07-30T05:00:25;15.30;99.90
13186;DHT22;6658;53.080;7.428;2023-07-30T05:02:51;15.40;99.90
13186;DHT22;6658;53.080;7.428;2023-07-30T05:05:16;15.50;99.90
13186;DHT22;6658;53.080;7.428;2023-07-30T05:07:42;15.60;99.90
13186;DHT22;6658;53.080;7.428;2023-07-30T05:10:08;15.70;99.90
13186;DHT22;6658;53.080;7.428;2023-07-30T05:12:36;15.70;99.90
13186;DHT22;6658;53.080;7.428;2023-07-30T05:15:02;15.90;99.90
13186;DHT22;6658;53.080;7.428;2023-07-30T05:17:29;16.00;99.90
13186;DHT22;6658;53.080;7.428;2023-07-30T05:19:55;16.10;99.90
13186;DHT22;6658;53.080;7.428;2023-07-30T05:22:21;16.10;99.90
13186;DHT22;6658;53.080;7.428;2023-07-30T05:24:46;16.20;99.90
13186;DHT22;6658;53.080;7.428;2023-07-30T05:27:13;16.20;99.90
13186;DHT22;6658;53.080;7.428;2023-07-30T05:29:38;16.30;99.90
13186;DHT22;6658;53.080;7.428;2023-07-30T05:32:04;16.50;99.90
13186;DHT22;6658;53.080;7.428;2023-07-30T05:34:30;16.60;99.90
13186;DHT22;6658;53.080;7.428;2023-07-30T05:36:56;16.80;99.90
13186;DHT22;6658;53.080;7.428;2023-07-30T05:39:21;17.00;99.90
13186;DHT22;6658;53.080;7.428;2023-07-30T05:41:47;17.30;99.90
13186;DHT22;6658;53.080;7.428;2023-07-30T05:44:13;17.60;99.90
13186;DHT22;6658;53.080;7.428;2023-07-30T05:46:38;17.80;99.90
13186;DHT22;6658;53.080;7.428;2023-07-30T05:49:04;18.10;99.90
13186;DHT22;6658;53.080;7.428;2023-07-30T05:51:30;18.50;99.90
13186;DHT22;6658;53.080;7.428;2023-07-30T05:53:55;18.70;99.90
13186;DHT22;6658;53.080;7.428;2023-07-30T05:56:21;18.80;99.90
13186;DHT22;6658;53.080;7.428;2023-07-30T05:58:47;18.80;99.90
13186;DHT22;6658;53.080;7.428;2023-07-30T06:01:12;18.80;99.90
13186;DHT22;6658;53.080;7.428;2023-07-30T06:03:38;18.70;99.90
13186;DHT22;6658;53.080;7.428;2023-07-30T06:06:04;18.70;99.90
13186;DHT22;6658;53.080;7.428;2023-07-30T06:08:29;18.70;99.90
13186;DHT22;6658;53.080;7.428;2023-07-30T06:10:59;18.70;99.90
13186;DHT22;6658;53.080;7.428;2023-07-30T06:13:25;18.70;99.90
13186;DHT22;6658;53.080;7.428;2023-07-30T06:15:51;18.70;99.90
13186;DHT22;6658;53.080;7.428;2023-07-30T06:18:16;18.70;99.90
13186;DHT22;6658;53.080;7.428;2023-07-30T06:20:42;18.70;99.90
13186;DHT22;6658;53.080;7.428;2023-07-30T06:23:08;18.70;99.90
13186;DHT22;6658;53.080;7.428;2023-07-30T06:25:33;18.70;99.90
13186;DHT22;6658;53.080;7.428;2023-07-30T06:27:59;18.70;99.90
13186;DHT22;6658;53.080;7.428;2023-07-30T06:30:25;18.60;99.90
13186;DHT22;6658;53.080;7.428;2023-07-30T06:32:50;18.60;99.90
13186;DHT22;6658;53.080;7.428;2023-07-30T06:35:16;18.60;99.90
13186;DHT22;6658;53.080;7.428;2023-07-30T06:37:42;18.60;99.90
13186;DHT22;6658;53.080;7.428;2023-07-30T06:40:07;18.80;99.90
13186;DHT22;6658;53.080;7.428;2023-07-30T06:42:33;18.90;99.90
13186;DHT22;6658;53.080;7.428;2023-07-30T06:44:59;19.00;99.90
13186;DHT22;6658;53.080;7.428;2023-07-30T06:47:25;19.10;99.90
13186;DHT22;6658;53.080;7.428;2023-07-30T06:49:50;19.10;99.90
13186;DHT22;6658;53.080;7.428;2023-07-30T06:52:16;19.10;99.90
13186;DHT22;6658;53.080;7.428;2023-07-30T06:54:42;19.10;99.90
13186;DHT22;6658;53.080;7.428;2023-07-30T06:57:07;19.00;99.90
13186;DHT22;6658;53.080;7.428;2023-07-30T06:59:34;18.90;99.90
13186;DHT22;6658;53.080;7.428;2023-07-30T07:01:59;18.80;99.90
13186;DHT22;6658;53.080;7.428;2023-07-30T07:04:25;18.80;99.90
13186;DHT22;6658;53.080;7.428;2023-07-30T07:06:51;18.70;99.90
13186;DHT22;6658;53.080;7.428;2023-07-30T07:09:17;18.50;99.90
13186;DHT22;6658;53.080;7.428;2023-07-30T07:11:43;18.40;99.90
13186;DHT22;6658;53.080;7.428;2023-07-30T07:14:09;18.50;99.90
13186;DHT22;6658;53.080;7.428;2023-07-30T07:16:34;18.50;99.90
13186;DHT22;6658;53.080;7.428;2023-07-30T07:19:00;18.60;99.90
13186;DHT22;6658;53.080;7.428;2023-07-30T07:21:26;18.50;99.90
13186;DHT22;6658;53.080;7.428;2023-07-30T07:23:52;18.50;99.90
13186;DHT22;6658;53.080;7.428;2023-07-30T07:26:17;18.50;99.90
13186;DHT22;6658;53.080;7.428;2023-07-30T07:28:43;18.50;99.90
13186;DHT22;6658;53.080;7.428;2023-07-30T07:31:09;18.60;99.90
13186;DHT22;6658;53.080;7.428;2023-07-30T07:33:34;18.70;99.90
13186;DHT22;6658;53.080;7.428;2023-07-30T07:36:04;18.80;99.90
13186;DHT22;6658;53.080;7.428;2023-07-30T07:38:31;18.80;99.90
13186;DHT22;6658;53.080;7.428;2023-07-30T07:40:57;18.90;99.90
13186;DHT22;6658;53.080;7.428;2023-07-30T07:43:23;19.10;99.90
13186;DHT22;6658;53.080;7.428;2023-07-30T07:45:49;19.20;99.90
13186;DHT22;6658;53.080;7.428;2023-07-30T07:48:15;19.40;99.90
13186;DHT22;6658;53.080;7.428;2023-07-30T07:50:40;19.50;99.90
13186;DHT22;6658;53.080;7.428;2023-07-30T07:53:06;19.60;99.90
13186;DHT22;6658;53.080;7.428;2023-07-30T07:55:32;19.60;99.90
13186;DHT22;6658;53.080;7.428;2023-07-30T07:57:58;19.70;99.90
13186;DHT22;6658;53.080;7.428;2023-07-30T08:00:24;19.80;99.90
13186;DHT22;6658;53.080;7.428;2023-07-30T08:02:50;19.90;99.90
13186;DHT22;6658;53.080;7.428;2023-07-30T08:05:15;19.90;99.90
13186;DHT22;6658;53.080;7.428;2023-07-30T08:07:41;20.10;99.90
13186;DHT22;6658;53.080;7.428;2023-07-30T08:10:07;20.40;99.90
13186;DHT22;6658;53.080;7.428;2023-07-30T08:12:33;20.80;99.90
13186;DHT22;6658;53.080;7.428;2023-07-30T08:14:59;21.30;99.90
13186;DHT22;6658;53.080;7.428;2023-07-30T08:17:25;22.10;99.90
13186;DHT22;6658;53.080;7.428;2023-07-30T08:19:50;22.90;99.90
13186;DHT22;6658;53.080;7.428;2023-07-30T08:22:16;23.50;99.90
13186;DHT22;6658;53.080;7.428;2023-07-30T08:24:42;23.80;99.90
13186;DHT22;6658;53.080;7.428;2023-07-30T08:27:07;24.10;99.90
13186;DHT22;6658;53.080;7.428;2023-07-30T08:29:33;24.60;99.90
13186;DHT22;6658;53.080;7.428;2023-07-30T08:31:59;24.60;99.90
13186;DHT22;6658;53.080;7.428;2023-07-30T08:34:25;24.20;99.90
13186;DHT22;6658;53.080;7.428;2023-07-30T08:36:51;23.90;99.90
13186;DHT22;6658;53.080;7.428;2023-07-30T08:39:17;23.60;99.90
13186;DHT22;6658;53.080;7.428;2023-07-30T08:41:43;23.50;99.90
13186;DHT22;6658;53.080;7.428;2023-07-30T08:44:09;23.60;99.90
13186;DHT22;6658;53.080;7.428;2023-07-30T08:46:35;23.90;99.90
13186;DHT22;6658;53.080;7.428;2023-07-30T08:49:01;24.30;99.90
13186;DHT22;6658;53.080;7.428;2023-07-30T08:51:27;24.70;99.90
13186;DHT22;6658;53.080;7.428;2023-07-30T08:53:53;25.40;99.90
13186;DHT22;6658;53.080;7.428;2023-07-30T08:56:20;26.00;99.90
13186;DHT22;6658;53.080;7.428;2023-07-30T08:58:47;25.80;99.90
13186;DHT22;6658;53.080;7.428;2023-07-30T09:01:15;25.30;99.90
13186;DHT22;6658;53.080;7.428;2023-07-30T09:03:43;25.00;99.90
13186;DHT22;6658;53.080;7.428;2023-07-30T09:06:09;24.40;99.90
13186;DHT22;6658;53.080;7.428;2023-07-30T09:08:34;24.10;99.90
13186;DHT22;6658;53.080;7.428;2023-07-30T09:11:10;24.20;99.90
13186;DHT22;6658;53.080;7.428;2023-07-30T09:13:40;24.30;99.90
13186;DHT22;6658;53.080;7.428;2023-07-30T09:16:10;24.70;99.90
13186;DHT22;6658;53.080;7.428;2023-07-30T09:18:46;25.10;99.90
13186;DHT22;6658;53.080;7.428;2023-07-30T09:21:15;24.70;99.90
13186;DHT22;6658;53.080;7.428;2023-07-30T09:23:46;24.20;99.90
13186;DHT22;6658;53.080;7.428;2023-07-30T09:26:12;23.50;99.90
13186;DHT22;6658;53.080;7.428;2023-07-30T09:28:39;22.90;99.90
13186;DHT22;6658;53.080;7.428;2023-07-30T09:31:06;22.30;99.90
13186;DHT22;6658;53.080;7.428;2023-07-30T09:33:39;21.80;99.90
13186;DHT22;6658;53.080;7.428;2023-07-30T09:36:07;21.20;99.90
13186;DHT22;6658;53.080;7.428;2023-07-30T09:38:41;20.80;99.90
13186;DHT22;6658;53.080;7.428;2023-07-30T09:41:08;20.50;99.90
13186;DHT22;6658;53.080;7.428;2023-07-30T09:43:35;20.10;99.90
13186;DHT22;6658;53.080;7.428;2023-07-30T09:46:02;19.70;99.90
13186;DHT22;6658;53.080;7.428;2023-07-30T09:48:33;19.20;99.90
13186;DHT22;6658;53.080;7.428;2023-07-30T09:51:00;18.60;99.90
13186;DHT22;6658;53.080;7.428;2023-07-30T09:53:29;18.20;99.90
13186;DHT22;6658;53.080;7.428;2023-07-30T09:56:00;17.90;99.90
13186;DHT22;6658;53.080;7.428;2023-07-30T09:58:26;17.70;99.90
13186;DHT22;6658;53.080;7.428;2023-07-30T10:00:52;17.50;99.90
13186;DHT22;6658;53.080;7.428;2023-07-30T10:03:18;17.40;99.90
13186;DHT22;6658;53.080;7.428;2023-07-30T10:05:44;17.30;99.90
13186;DHT22;6658;53.080;7.428;2023-07-30T10:08:19;17.30;99.90
13186;DHT22;6658;53.080;7.428;2023-07-30T10:10:47;17.10;99.90
13186;DHT22;6658;53.080;7.428;2023-07-30T10:13:15;17.00;99.90
13186;DHT22;6658;53.080;7.428;2023-07-30T10:15:42;16.80;99.90
13186;DHT22;6658;53.080;7.428;2023-07-30T10:18:08;16.40;99.90
13186;DHT22;6658;53.080;7.428;2023-07-30T10:20:34;16.00;99.90
13186;DHT22;6658;53.080;7.428;2023-07-30T10:23:01;15.80;99.90
13186;DHT22;6658;53.080;7.428;2023-07-30T10:25:41;15.70;99.90
13186;DHT22;6658;53.080;7.428;2023-07-30T10:28:08;15.60;99.90
13186;DHT22;6658;53.080;7.428;2023-07-30T10:30:33;15.50;99.90
13186;DHT22;6658;53.080;7.428;2023-07-30T10:33:04;15.60;99.90
13186;DHT22;6658;53.080;7.428;2023-07-30T10:35:39;15.50;99.90
13186;DHT22;6658;53.080;7.428;2023-07-30T10:38:19;15.40;99.90
13186;DHT22;6658;53.080;7.428;2023-07-30T10:41:09;15.20;99.90
13186;DHT22;6658;53.080;7.428;2023-07-30T10:43:43;15.10;99.90
13186;DHT22;6658;53.080;7.428;2023-07-30T10:46:10;15.00;99.90
13186;DHT22;6658;53.080;7.428;2023-07-30T10:48:38;15.00;99.90
13186;DHT22;6658;53.080;7.428;2023-07-30T10:51:06;15.10;99.90
13186;DHT22;6658;53.080;7.428;2023-07-30T10:53:32;15.10;99.90
13186;DHT22;6658;53.080;7.428;2023-07-30T10:55:59;15.20;99.90
13186;DHT22;6658;53.080;7.428;2023-07-30T10:58:28;15.30;99.90
13186;DHT22;6658;53.080;7.428;2023-07-30T11:00:54;15.30;99.90
13186;DHT22;6658;53.080;7.428;2023-07-30T11:03:20;15.40;99.90
13186;DHT22;6658;53.080;7.428;2023-07-30T11:05:47;15.50;99.90
13186;DHT22;6658;53.080;7.428;2023-07-30T11:08:13;15.60;99.90
13186;DHT22;6658;53.080;7.428;2023-07-30T11:10:46;15.70;99.90
13186;DHT22;6658;53.080;7.428;2023-07-30T11:13:13;15.90;99.90
13186;DHT22;6658;53.080;7.428;2023-07-30T11:15:43;16.10;99.90
13186;DHT22;6658;53.080;7.428;2023-07-30T11:18:11;16.20;99.90
13186;DHT22;6658;53.080;7.428;2023-07-30T11:20:37;16.30;99.90
13186;DHT22;6658;53.080;7.428;2023-07-30T11:23:24;16.50;99.90
13186;DHT22;6658;53.080;7.428;2023-07-30T11:25:49;16.70;99.90
13186;DHT22;6658;53.080;7.428;2023-07-30T11:28:33;17.10;99.90
13186;DHT22;6658;53.080;7.428;2023-07-30T11:31:01;17.50;99.90
13186;DHT22;6658;53.080;7.428;2023-07-30T11:33:28;17.80;99.90
13186;DHT22;6658;53.080;7.428;2023-07-30T11:35:57;17.90;99.90
13186;DHT22;6658;53.080;7.428;2023-07-30T11:38:25;18.10;99.90
13186;DHT22;6658;53.080;7.428;2023-07-30T11:40:53;18.30;99.90
13186;DHT22;6658;53.080;7.428;2023-07-30T11:43:22;18.50;99.90
13186;DHT22;6658;53.080;7.428;2023-07-30T11:45:48;18.80;99.90
13186;DHT22;6658;53.080;7.428;2023-07-30T11:48:14;19.30;99.90
13186;DHT22;6658;53.080;7.428;2023-07-30T11:50:58;19.70;99.90
13186;DHT22;6658;53.080;7.428;2023-07-30T11:53:44;20.10;99.90
13186;DHT22;6658;53.080;7.428;2023-07-30T11:56:21;20.50;99.90
13186;DHT22;6658;53.080;7.428;2023-07-30T11:58:48;20.90;99.90
13186;DHT22;6658;53.080;7.428;2023-07-30T12:01:17;21.10;99.90
13186;DHT22;6658;53.080;7.428;2023-07-30T12:03:43;21.50;99.90
13186;DHT22;6658;53.080;7.428;2023-07-30T12:06:10;21.80;99.90
13186;DHT22;6658;53.080;7.428;2023-07-30T12:08:36;22.10;99.90
13186;DHT22;6658;53.080;7.428;2023-07-30T12:11:07;22.50;99.90
13186;DHT22;6658;53.080;7.428;2023-07-30T12:13:33;22.40;99.90
13186;DHT22;6658;53.080;7.428;2023-07-30T12:15:59;22.40;99.90
13186;DHT22;6658;53.080;7.428;2023-07-30T12:18:26;22.40;99.90
13186;DHT22;6658;53.080;7.428;2023-07-30T12:20:53;22.30;99.90
13186;DHT22;6658;53.080;7.428;2023-07-30T12:23:20;22.20;99.90
13186;DHT22;6658;53.080;7.428;2023-07-30T12:25:46;22.40;99.90
13186;DHT22;6658;53.080;7.428;2023-07-30T12:28:13;22.70;99.90
13186;DHT22;6658;53.080;7.428;2023-07-30T12:30:39;23.10;99.90
13186;DHT22;6658;53.080;7.428;2023-07-30T12:33:05;23.20;99.90
13186;DHT22;6658;53.080;7.428;2023-07-30T12:35:32;23.30;99.90
13186;DHT22;6658;53.080;7.428;2023-07-30T12:37:59;23.20;99.90
13186;DHT22;6658;53.080;7.428;2023-07-30T12:40:25;23.10;99.90
13186;DHT22;6658;53.080;7.428;2023-07-30T12:42:51;23.10;99.90
13186;DHT22;6658;53.080;7.428;2023-07-30T12:45:16;23.00;99.90
13186;DHT22;6658;53.080;7.428;2023-07-30T12:47:42;22.90;99.90
13186;DHT22;6658;53.080;7.428;2023-07-30T12:50:08;22.90;99.90
13186;DHT22;6658;53.080;7.428;2023-07-30T12:52:34;22.70;99.90
13186;DHT22;6658;53.080;7.428;2023-07-30T12:55:01;22.50;99.90
13186;DHT22;6658;53.080;7.428;2023-07-30T12:57:27;22.20;99.90
13186;DHT22;6658;53.080;7.428;2023-07-30T12:59:52;21.90;99.90
13186;DHT22;6658;53.080;7.428;2023-07-30T13:02:18;21.60;99.90
13186;DHT22;6658;53.080;7.428;2023-07-30T13:04:44;21.40;99.90
13186;DHT22;6658;53.080;7.428;2023-07-30T13:07:10;21.10;99.90
13186;DHT22;6658;53.080;7.428;2023-07-30T13:09:35;20.80;99.90
13186;DHT22;6658;53.080;7.428;2023-07-30T13:12:01;20.30;99.90
13186;DHT22;6658;53.080;7.428;2023-07-30T13:14:27;19.80;99.90
13186;DHT22;6658;53.080;7.428;2023-07-30T13:16:52;19.50;99.90
13186;DHT22;6658;53.080;7.428;2023-07-30T13:19:18;19.30;99.90
13186;DHT22;6658;53.080;7.428;2023-07-30T13:21:43;19.30;99.90
13186;DHT22;6658;53.080;7.428;2023-07-30T13:24:09;19.30;99.90
13186;DHT22;6658;53.080;7.428;2023-07-30T13:26:35;19.30;99.90
13186;DHT22;6658;53.080;7.428;2023-07-30T13:29:01;19.30;99.90
13186;DHT22;6658;53.080;7.428;2023-07-30T13:31:28;19.40;99.90
13186;DHT22;6658;53.080;7.428;2023-07-30T13:33:54;19.50;99.90
13186;DHT22;6658;53.080;7.428;2023-07-30T13:36:19;19.60;99.90
13186;DHT22;6658;53.080;7.428;2023-07-30T13:38:46;19.70;99.90
13186;DHT22;6658;53.080;7.428;2023-07-30T13:41:12;19.80;99.90
13186;DHT22;6658;53.080;7.428;2023-07-30T13:43:38;20.00;99.90
13186;DHT22;6658;53.080;7.428;2023-07-30T13:46:03;20.10;99.90
13186;DHT22;6658;53.080;7.428;2023-07-30T13:48:29;20.30;99.90
13186;DHT22;6658;53.080;7.428;2023-07-30T13:50:55;20.20;99.90
13186;DHT22;6658;53.080;7.428;2023-07-30T13:53:20;20.20;99.90
13186;DHT22;6658;53.080;7.428;2023-07-30T13:55:46;20.20;99.90
13186;DHT22;6658;53.080;7.428;2023-07-30T13:58:12;20.30;99.90
13186;DHT22;6658;53.080;7.428;2023-07-30T14:00:42;20.40;99.90
13186;DHT22;6658;53.080;7.428;2023-07-30T14:03:08;20.50;99.90
13186;DHT22;6658;53.080;7.428;2023-07-30T14:05:34;20.60;99.90
13186;DHT22;6658;53.080;7.428;2023-07-30T14:08:00;20.60;99.90
13186;DHT22;6658;53.080;7.428;2023-07-30T14:10:26;20.70;99.90
13186;DHT22;6658;53.080;7.428;2023-07-30T14:12:52;20.80;99.90
13186;DHT22;6658;53.080;7.428;2023-07-30T14:15:18;20.90;99.90
13186;DHT22;6658;53.080;7.428;2023-07-30T14:17:44;21.10;99.90
13186;DHT22;6658;53.080;7.428;2023-07-30T14:20:10;21.20;99.90
13186;DHT22;6658;53.080;7.428;2023-07-30T14:22:36;21.20;99.90
13186;DHT22;6658;53.080;7.428;2023-07-30T14:25:05;21.10;99.90
13186;DHT22;6658;53.080;7.428;2023-07-30T14:27:31;21.10;99.90
13186;DHT22;6658;53.080;7.428;2023-07-30T14:29:56;21.10;99.90
13186;DHT22;6658;53.080;7.428;2023-07-30T14:32:23;21.10;99.90
13186;DHT22;6658;53.080;7.428;2023-07-30T14:34:49;21.10;99.90
13186;DHT22;6658;53.080;7.428;2023-07-30T14:37:15;21.30;99.90
13186;DHT22;6658;53.080;7.428;2023-07-30T14:39:43;21.40;99.90
13186;DHT22;6658;53.080;7.428;2023-07-30T14:42:11;21.50;99.90
13186;DHT22;6658;53.080;7.428;2023-07-30T14:44:36;21.40;99.90
13186;DHT22;6658;53.080;7.428;2023-07-30T14:47:02;21.40;99.90
13186;DHT22;6658;53.080;7.428;2023-07-30T14:49:30;21.30;99.90
13186;DHT22;6658;53.080;7.428;2023-07-30T14:51:56;21.20;99.90
13186;DHT22;6658;53.080;7.428;2023-07-30T14:54:22;20.90;99.90
13186;DHT22;6658;53.080;7.428;2023-07-30T14:56:47;20.90;99.90
13186;DHT22;6658;53.080;7.428;2023-07-30T14:59:13;20.90;99.90
13186;DHT22;6658;53.080;7.428;2023-07-30T15:01:39;21.00;99.90
13186;DHT22;6658;53.080;7.428;2023-07-30T15:04:04;21.00;99.90
13186;DHT22;6658;53.080;7.428;2023-07-30T15:06:30;21.00;99.90
13186;DHT22;6658;53.080;7.428;2023-07-30T15:08:56;21.00;99.90
13186;DHT22;6658;53.080;7.428;2023-07-30T15:11:22;21.10;99.90
13186;DHT22;6658;53.080;7.428;2023-07-30T15:13:48;21.10;99.90
13186;DHT22;6658;53.080;7.428;2023-07-30T15:16:14;21.10;99.90
13186;DHT22;6658;53.080;7.428;2023-07-30T15:18:43;21.00;99.90
13186;DHT22;6658;53.080;7.428;2023-07-30T15:21:14;20.90;99.90
13186;DHT22;6658;53.080;7.428;2023-07-30T15:23:42;20.80;99.90
13186;DHT22;6658;53.080;7.428;2023-07-30T15:26:09;20.80;99.90
13186;DHT22;6658;53.080;7.428;2023-07-30T15:28:35;20.70;99.90
13186;DHT22;6658;53.080;7.428;2023-07-30T15:31:00;20.70;99.90
13186;DHT22;6658;53.080;7.428;2023-07-30T15:33:26;20.70;99.90
13186;DHT22;6658;53.080;7.428;2023-07-30T15:35:52;20.60;99.90
13186;DHT22;6658;53.080;7.428;2023-07-30T15:38:17;20.50;99.90
13186;DHT22;6658;53.080;7.428;2023-07-30T15:40:43;20.50;99.90